Armindo Jose — CUCT6 — position and weather

sailwx.info

Track history (hours):
 
Tides and Currents Weather Stations Pressure Air Temp Water Temp Dewpoint Dewpoint Depression Visibility Wind Speed Wind Dir Waves Ship Positions

Armindo Jose

Last reported at 2018-Jun-21 14:00 UTC. Time now 2018-Jun-21 14:17 UTC.
Position N 38°17' W 009°04'.

MMSI: 204254000.

Date/timePositionNaut miles runAvg speedWind from/ knotsBaromVisibWave heightAir tempDewpointWater temp
2018-Jun-21 14:00N 38°17' W 009°04'3 1.7
2018-Jun-21 12:13N 38°14' W 009°03'0 0.5
2018-Jun-21 12:00N 38°14' W 009°03'0 0.7
2018-Jun-21 11:28N 38°14' W 009°03'5 0.5
2018-Jun-21 01:11N 38°18' W 009°04'1 7.6
2018-Jun-21 01:00N 38°20' W 009°04'4 7.8
2018-Jun-21 00:30N 38°24' W 009°05'3 0.2
2018-Jun-20 11:06N 38°26' W 009°07'0 1.6
2018-Jun-20 11:00N 38°26' W 009°07'2 4.8
2018-Jun-20 10:30N 38°25' W 009°05'4 7.8
2018-Jun-20 10:00N 38°22' W 009°01'6 0.7
2018-Jun-20 01:47N 38°17' W 008°58'12 7.5
2018-Jun-20 00:14N 38°26' W 009°06'0 0.0
2018-Jun-19 15:05N 38°26' W 009°07'0 1.8
2018-Jun-19 15:01N 38°26' W 009°07'2 3.6
2018-Jun-19 14:30N 38°25' W 009°06'4 7.7
2018-Jun-19 14:00N 38°21' W 009°05'0 0.0
2018-Jun-19 00:55N 38°21' W 009°05'3 7.8
2018-Jun-19 00:30N 38°24' W 009°06'2 0.3
2018-Jun-18 15:13N 38°26' W 009°07'0 0.7
2018-Jun-18 14:59N 38°26' W 009°07'2 4.8
2018-Jun-18 14:30N 38°25' W 009°09'4 7.5
2018-Jun-18 14:00N 38°25' W 009°14'4 7.3
2018-Jun-18 13:29N 38°25' W 009°19'7 0.9
2018-Jun-18 05:34N 38°29' W 009°27'0 1.0
2018-Jun-18 05:25N 38°29' W 009°27'2 0.6
2018-Jun-18 02:18N 38°30' W 009°25'2 7.8
2018-Jun-18 02:00N 38°29' W 009°22'4 7.8
2018-Jun-18 01:27N 38°26' W 009°17'3 7.6
2018-Jun-18 01:00N 38°25' W 009°14'4 7.5
2018-Jun-18 00:30N 38°25' W 009°09'  
2018-Jun-15 14:46N 38°26' W 009°07'0 0.4
2018-Jun-15 14:29N 38°26' W 009°07'3 6.4
2018-Jun-15 14:00N 38°23' W 009°05'4 7.2
2018-Jun-15 13:30N 38°20' W 009°04'0 0.0
2018-Jun-15 01:03N 38°20' W 009°05'0 7.4
2018-Jun-15 01:00N 38°21' W 009°05'4 7.8
2018-Jun-15 00:30N 38°25' W 009°06'2 0.2
2018-Jun-14 15:22N 38°26' W 009°07'0 0.5
2018-Jun-14 15:00N 38°26' W 009°07'3 5.1
2018-Jun-14 14:30N 38°24' W 009°06'4 7.3
2018-Jun-14 14:00N 38°20' W 009°05'9 0.8
2018-Jun-14 03:00N 38°12' W 009°01'10 4.5
2018-Jun-14 00:51N 38°21' W 009°05'4 7.8
2018-Jun-14 00:20N 38°25' W 009°06'2 0.1
2018-Jun-13 06:11N 38°26' W 009°07'0 0.0
2018-Jun-12 14:12N 38°26' W 009°07'0 0.6
2018-Jun-12 13:57N 38°26' W 009°07'3 6.8
2018-Jun-12 13:30N 38°23' W 009°05'4 7.2
2018-Jun-12 13:00N 38°20' W 009°04'4 7.1
2018-Jun-12 12:30N 38°17' W 009°03'0 0.8
2018-Jun-12 11:56N 38°16' W 009°03'8 1.6
2018-Jun-12 06:58N 38°09' W 008°58'11 1.9
2018-Jun-12 01:13N 38°19' W 009°04'2 7.4
2018-Jun-12 01:00N 38°20' W 009°04'4 7.6
2018-Jun-12 00:30N 38°24' W 009°06'2 0.2
2018-Jun-11 14:32N 38°26' W 009°07'0 0.9
2018-Jun-11 14:30N 38°26' W 009°07'0 0.6
2018-Jun-11 14:00N 38°26' W 009°07'  
Track history (hours):
 
Tides and Currents Weather Stations Pressure Air Temp Water Temp Dewpoint Dewpoint Depression Visibility Wind Speed Wind Dir Waves Ship Positions

Armindo Jose

Last reported at 2018-Jun-21 14:00 UTC. Time now 2018-Jun-21 14:17 UTC.
Position N 38°17' W 009°04'.

MMSI: 204254000.

Date/timePositionNaut miles runAvg speedWind from/ knotsBaromVisibWave heightAir tempDewpointWater temp
2018-Jun-21 14:00N 38°17' W 009°04'3 1.7
2018-Jun-21 12:13N 38°14' W 009°03'0 0.5
2018-Jun-21 12:00N 38°14' W 009°03'0 0.7
2018-Jun-21 11:28N 38°14' W 009°03'5 0.5
2018-Jun-21 01:11N 38°18' W 009°04'1 7.6
2018-Jun-21 01:00N 38°20' W 009°04'4 7.8
2018-Jun-21 00:30N 38°24' W 009°05'3 0.2
2018-Jun-20 11:06N 38°26' W 009°07'0 1.6
2018-Jun-20 11:00N 38°26' W 009°07'2 4.8
2018-Jun-20 10:30N 38°25' W 009°05'4 7.8
2018-Jun-20 10:00N 38°22' W 009°01'6 0.7
2018-Jun-20 01:47N 38°17' W 008°58'12 7.5
2018-Jun-20 00:14N 38°26' W 009°06'0 0.0
2018-Jun-19 15:05N 38°26' W 009°07'0 1.8
2018-Jun-19 15:01N 38°26' W 009°07'2 3.6
2018-Jun-19 14:30N 38°25' W 009°06'4 7.7
2018-Jun-19 14:00N 38°21' W 009°05'0 0.0
2018-Jun-19 00:55N 38°21' W 009°05'3 7.8
2018-Jun-19 00:30N 38°24' W 009°06'2 0.3
2018-Jun-18 15:13N 38°26' W 009°07'0 0.7
2018-Jun-18 14:59N 38°26' W 009°07'2 4.8
2018-Jun-18 14:30N 38°25' W 009°09'4 7.5
2018-Jun-18 14:00N 38°25' W 009°14'4 7.3
2018-Jun-18 13:29N 38°25' W 009°19'7 0.9
2018-Jun-18 05:34N 38°29' W 009°27'0 1.0
2018-Jun-18 05:25N 38°29' W 009°27'2 0.6
2018-Jun-18 02:18N 38°30' W 009°25'2 7.8
2018-Jun-18 02:00N 38°29' W 009°22'4 7.8
2018-Jun-18 01:27N 38°26' W 009°17'3 7.6
2018-Jun-18 01:00N 38°25' W 009°14'4 7.5
2018-Jun-18 00:30N 38°25' W 009°09'  
2018-Jun-15 14:46N 38°26' W 009°07'0 0.4
2018-Jun-15 14:29N 38°26' W 009°07'3 6.4
2018-Jun-15 14:00N 38°23' W 009°05'4 7.2
2018-Jun-15 13:30N 38°20' W 009°04'0 0.0
2018-Jun-15 01:03N 38°20' W 009°05'0 7.4
2018-Jun-15 01:00N 38°21' W 009°05'4 7.8
2018-Jun-15 00:30N 38°25' W 009°06'2 0.2
2018-Jun-14 15:22N 38°26' W 009°07'0 0.5
2018-Jun-14 15:00N 38°26' W 009°07'3 5.1
2018-Jun-14 14:30N 38°24' W 009°06'4 7.3
2018-Jun-14 14:00N 38°20' W 009°05'9 0.8
2018-Jun-14 03:00N 38°12' W 009°01'10 4.5
2018-Jun-14 00:51N 38°21' W 009°05'4 7.8
2018-Jun-14 00:20N 38°25' W 009°06'2 0.1
2018-Jun-13 06:11N 38°26' W 009°07'0 0.0
2018-Jun-12 14:12N 38°26' W 009°07'0 0.6
2018-Jun-12 13:57N 38°26' W 009°07'3 6.8
2018-Jun-12 13:30N 38°23' W 009°05'4 7.2
2018-Jun-12 13:00N 38°20' W 009°04'4 7.1
2018-Jun-12 12:30N 38°17' W 009°03'0 0.8
2018-Jun-12 11:56N 38°16' W 009°03'8 1.6
2018-Jun-12 06:58N 38°09' W 008°58'11 1.9
2018-Jun-12 01:13N 38°19' W 009°04'2 7.4
2018-Jun-12 01:00N 38°20' W 009°04'4 7.6
2018-Jun-12 00:30N 38°24' W 009°06'2 0.2
2018-Jun-11 14:32N 38°26' W 009°07'0 0.9
2018-Jun-11 14:30N 38°26' W 009°07'0 0.6
2018-Jun-11 14:00N 38°26' W 009°07'  

Dump ship's entire track history